Time;durP1;ratioP1;P1;durP2;ratioP2;P2;SDS_P1;SDS_P2;PMS_P1;PMS_P2;Temp;Humidity;BMP_temperature;BMP_pressure;BME280_temperature;BME280_humidity;BME280_pressure;Samples;Min_cycle;Max_cycle;Signal;HPM_P1;HPM_P2
2022/11/03 00:02:17;;;;;;;;;;;;;;;-143.57;67.16;50961.06;5061125;28;20464;-65
2022/11/03 00:04:44;;;;;;;;;;;;;;;-143.57;67.46;50965.06;5059227;28;19925;-65
2022/11/03 00:07:11;;;;;;;;;;;;;;;-143.57;67.92;50947.16;5060914;28;19928;-65
2022/11/03 00:09:38;;;;;;;;;;;;;;;-143.57;68.34;50945.19;5056527;28;19932;-66
2022/11/03 00:12:04;;;;;;;;;;;;;;;-143.57;68.61;50976.97;5061239;28;20011;-66
2022/11/03 00:14:31;;;;;;;;;;;;;;;-143.57;68.01;50965.06;5059073;28;19932;-65
2022/11/03 00:16:58;;;;;;;;;;;;;;;-143.57;67.18;50909.41;5058944;28;19928;-66
2022/11/03 00:19:24;;;;;;;;;;;;;;;-143.57;66.78;50969.03;5061360;28;20427;-66
2022/11/03 00:21:51;;;;;;;;;;;;;;;-143.57;66.39;50945.19;5061054;28;19925;-66
2022/11/03 00:24:18;;;;;;;;;;;;;;;-143.57;66.94;50933.25;5054614;28;19978;-65
2022/11/03 00:26:44;;;;;;;;;;;;;;;-143.57;66.73;50984.94;5057840;28;19982;-65
2022/11/03 00:29:13;;;;;;;;;;;;;;;-143.57;67.07;50961.06;5056421;28;19928;-65
2022/11/03 00:31:41;;;;;;;;;;;;;;;-143.57;66.84;50965.06;5059357;28;19997;-65
2022/11/03 00:34:08;;;;;;;;;;;;;;;-143.57;67.37;50949.16;5059577;28;19936;-65
2022/11/03 00:36:35;;;;;;;;;;;;;;;-143.57;67.09;50929.28;5057939;28;20035;-65
2022/11/03 00:39:02;;;;;;;;;;;;;;;-143.57;68.04;50996.84;5062735;28;19928;-65
2022/11/03 00:41:29;;;;;;;;;;;;;;;-143.57;68.53;50953.13;5058342;28;20028;-65
2022/11/03 00:43:56;;;;;;;;;;;;;;;-143.57;68.47;50969.03;5061014;28;19990;-66
2022/11/03 00:46:23;;;;;;;;;;;;;;;-143.57;67.75;50980.97;5064025;28;20015;-65
2022/11/03 00:48:50;;;;;;;;;;;;;;;-143.57;66.44;50949.16;5063989;28;20531;-65
2022/11/03 00:51:18;;;;;;;;;;;;;;;-143.57;65.50;50971.03;5061047;28;20620;-65
2022/11/03 00:53:46;;;;;;;;;;;;;;;-143.57;64.20;50980.97;5058472;28;20387;-65
2022/11/03 00:56:14;;;;;;;;;;;;;;;-143.57;63.88;50973.00;5057706;28;20240;-65
2022/11/03 00:58:41;;;;;;;;;;;;;;;-143.57;63.43;50980.97;5063243;28;20391;-65
2022/11/03 01:01:12;;;;;;;;;;;;;;;-143.57;62.97;50965.06;5060673;28;19985;-65
2022/11/03 01:03:39;;;;;;;;;;;;;;;-143.57;62.86;50971.03;5058412;28;20447;-65
2022/11/03 01:08:53;;;;;;;;;;;;;;;-143.57;61.52;50941.19;5061047;28;19932;-65
2022/11/03 01:14:06;;;;;;;;;;;;;;;-143.57;63.63;50978.97;5059588;28;19989;-66
2022/11/03 01:16:33;;;;;;;;;;;;;;;-143.57;64.98;50973.00;5064691;28;19930;-66
2022/11/03 01:19:00;;;;;;;;;;;;;;;-143.57;65.93;50969.03;5063014;28;20027;-66
2022/11/03 01:21:26;;;;;;;;;;;;;;;-143.57;66.69;50945.19;5068052;28;19939;-67
2022/11/03 01:23:53;;;;;;;;;;;;;;;-143.57;67.17;50969.03;5063173;28;19974;-67
2022/11/03 01:26:20;;;;;;;;;;;;;;;-143.57;67.17;50941.19;5064160;28;19924;-67
2022/11/03 01:28:46;;;;;;;;;;;;;;;-143.57;67.51;51008.78;5060569;28;20002;-67
2022/11/03 01:31:15;;;;;;;;;;;;;;;-143.57;67.51;50961.06;5065650;28;19985;-67
2022/11/03 01:33:41;;;;;;;;;;;;;;;-143.57;68.20;50957.09;5061630;28;19925;-67
2022/11/03 01:36:08;;;;;;;;;;;;;;;-143.57;68.21;50945.19;5063416;28;20010;-67
2022/11/03 01:38:35;;;;;;;;;;;;;;;-143.57;68.80;50909.41;5063883;28;19928;-66
2022/11/03 01:41:03;;;;;;;;;;;;;;;-143.57;69.29;50967.03;5074010;28;19986;-68
2022/11/03 01:43:31;;;;;;;;;;;;;;;-143.57;69.57;50957.09;5070209;28;20448;-66
2022/11/03 01:46:00;;;;;;;;;;;;;;;-143.57;69.29;50953.13;5068480;28;20573;-65
2022/11/03 01:48:27;;;;;;;;;;;;;;;-143.57;68.78;50984.94;5072693;28;19950;-68
2022/11/03 01:50:54;;;;;;;;;;;;;;;-143.57;68.29;50973.00;5065507;28;19947;-66
2022/11/03 01:53:21;;;;;;;;;;;;;;;-143.57;68.62;50965.06;5063109;28;19964;-67
2022/11/03 01:55:49;;;;;;;;;;;;;;;-143.57;68.42;50953.13;5061018;28;19932;-67
2022/11/03 01:58:20;;;;;;;;;;;;;;;-143.57;68.39;50961.06;5061384;28;19963;-66
2022/11/03 02:00:49;;;;;;;;;;;;;;;-143.57;68.37;50921.31;5065487;28;19963;-67
2022/11/03 02:03:17;;;;;;;;;;;;;;;-143.57;68.34;50953.13;5063424;28;20413;-67
2022/11/03 02:05:44;;;;;;;;;;;;;;;-143.57;68.82;50963.06;5061306;28;19970;-67
2022/11/03 02:08:14;;;;;;;;;;;;;;;-143.57;68.57;50988.91;5066181;28;19928;-68
2022/11/03 02:10:40;;;;;;;;;;;;;;;-143.57;68.35;50998.84;5060780;28;20011;-67
2022/11/03 02:13:26;;;;;;;;;;;;;;;-143.57;69.00;50953.13;5062281;28;20006;-67
2022/11/03 02:15:54;;;;;;;;;;;;;;;-143.57;70.01;50957.09;5060423;28;19928;-67
2022/11/03 02:18:23;;;;;;;;;;;;;;;-143.57;69.67;50961.06;5061227;28;19986;-66
2022/11/03 02:20:56;;;;;;;;;;;;;;;-143.57;69.42;50945.19;5064121;28;19985;-67
2022/11/03 02:23:31;;;;;;;;;;;;;;;-143.57;69.40;50984.94;5063504;28;19928;-67
2022/11/03 02:25:58;;;;;;;;;;;;;;;-143.57;69.28;50976.97;5060044;28;19928;-66
2022/11/03 02:28:27;;;;;;;;;;;;;;;-143.57;69.82;50957.09;5058441;28;19932;-66
2022/11/03 02:31:01;;;;;;;;;;;;;;;-143.57;69.93;50973.00;5062535;28;19928;-66
2022/11/03 02:33:28;;;;;;;;;;;;;;;-143.57;69.91;50929.28;5062557;28;19993;-66
2022/11/03 02:35:54;;;;;;;;;;;;;;;-143.57;69.76;50976.97;5062076;28;19925;-66
2022/11/03 02:38:23;;;;;;;;;;;;;;;-143.57;70.29;50929.28;5061227;28;20043;-66
2022/11/03 02:40:53;;;;;;;;;;;;;;;-143.57;70.04;50986.91;5063909;28;19925;-66
2022/11/03 02:43:21;;;;;;;;;;;;;;;-143.57;69.84;50984.94;5093828;27;19958;-67
2022/11/03 02:45:49;;;;;;;;;;;;;;;-143.57;70.13;50953.13;5064294;28;20413;-66
2022/11/03 02:48:17;;;;;;;;;;;;;;;-143.57;69.88;50949.16;5060220;28;19936;-66
2022/11/03 02:50:43;;;;;;;;;;;;;;;-143.57;69.45;50965.06;5061878;28;20074;-66
2022/11/03 02:53:11;;;;;;;;;;;;;;;-143.57;69.19;50965.06;5061914;28;19925;-66
2022/11/03 02:55:56;;;;;;;;;;;;;;;-143.57;69.55;50973.00;5060391;28;19924;-66
2022/11/03 02:58:33;;;;;;;;;;;;;;;-143.57;70.04;50961.06;5058885;28;20536;-65
2022/11/03 03:01:02;;;;;;;;;;;;;;;-143.57;70.29;50931.25;5060440;28;19928;-65
2022/11/03 03:03:37;;;;;;;;;;;;;;;-143.57;70.54;50953.13;5061097;28;21297;-65
2022/11/03 03:06:07;;;;;;;;;;;;;;;-143.57;70.76;50965.06;5058992;28;20609;-65
2022/11/03 03:08:35;;;;;;;;;;;;;;;-143.57;71.00;50949.16;5063312;28;19990;-66
2022/11/03 03:11:03;;;;;;;;;;;;;;;-143.57;70.61;50984.94;5062358;28;19928;-66
2022/11/03 03:13:30;;;;;;;;;;;;;;;-143.57;70.14;50984.94;5063897;28;19951;-66
2022/11/03 03:16:06;;;;;;;;;;;;;;;-143.57;69.85;50996.84;5058886;28;20675;-66
2022/11/03 03:18:47;;;;;;;;;;;;;;;-143.57;69.78;50988.91;5062793;28;19975;-66
2022/11/03 03:21:22;;;;;;;;;;;;;;;-143.57;69.01;50949.16;5059372;28;20015;-67
2022/11/03 03:23:53;;;;;;;;;;;;;;;-143.57;68.56;50965.06;5059803;28;21489;-66
2022/11/03 03:26:27;;;;;;;;;;;;;;;-143.57;69.12;50990.91;5058387;28;19986;-66
2022/11/03 03:28:58;;;;;;;;;;;;;;;-143.57;70.36;50973.00;5059281;28;19939;-65
2022/11/03 03:31:27;;;;;;;;;;;;;;;-143.57;70.87;50969.03;5059257;28;19932;-65
2022/11/03 03:33:56;;;;;;;;;;;;;;;-143.57;71.76;50937.22;5062810;28;19924;-66
2022/11/03 03:36:30;;;;;;;;;;;;;;;-143.57;72.02;50945.19;5058402;28;20634;-66
2022/11/03 03:39:03;;;;;;;;;;;;;;;-143.57;73.36;50978.97;5062535;28;20019;-66
2022/11/03 03:41:31;;;;;;;;;;;;;;;-143.57;74.65;50982.94;5059168;28;19932;-66
2022/11/03 03:44:00;;;;;;;;;;;;;;;-143.57;74.47;50941.19;5060216;28;19932;-66
2022/11/03 03:46:30;;;;;;;;;;;;;;;-143.57;75.15;50984.94;5059381;28;20043;-66
2022/11/03 03:48:57;;;;;;;;;;;;;;;-143.57;76.83;50933.25;5061899;28;20689;-67
2022/11/03 03:51:25;;;;;;;;;;;;;;;-143.57;78.46;51014.75;5058377;28;19929;-67
2022/11/03 03:53:52;;;;;;;;;;;;;;;-143.57;80.43;50996.84;5056679;28;19928;-67
2022/11/03 03:56:22;;;;;;;;;;;;;;;-143.57;80.17;50967.03;5060699;28;19929;-66
2022/11/03 03:58:49;;;;;;;;;;;;;;;-143.57;81.16;50953.13;5057374;28;19950;-66
2022/11/03 04:01:15;;;;;;;;;;;;;;;-143.57;80.96;50969.03;5064743;28;20013;-66
2022/11/03 04:03:42;;;;;;;;;;;;;;;-143.57;80.37;50988.91;5059002;28;19924;-66
2022/11/03 04:06:09;;;;;;;;;;;;;;;-143.57;80.21;50988.91;5063027;28;19967;-66
2022/11/03 04:08:35;;;;;;;;;;;;;;;-143.57;82.34;50933.25;5059459;28;20011;-66
2022/11/03 04:22:15;;;;;;;;;;;;;;;-143.57;88.21;50957.09;5058086;28;19935;-66
2022/11/03 04:24:46;;;;;;;;;;;;;;;-143.57;89.05;50980.97;5057991;28;19994;-65
2022/11/03 04:27:35;;;;;;;;;;;;;;;-143.57;92.55;50976.97;5059892;28;20028;-65
2022/11/03 04:30:05;;;;;;;;;;;;;;;-143.57;93.44;50973.00;5053762;28;20402;-66
2022/11/03 04:32:32;;;;;;;;;;;;;;;-143.57;93.63;50967.03;5060556;28;20061;-66
2022/11/03 04:34:59;;;;;;;;;;;;;;;-143.57;94.31;50976.97;5058814;28;19932;-66
2022/11/03 04:37:27;;;;;;;;;;;;;;;-143.57;94.53;50969.03;5059731;28;20015;-66
2022/11/03 04:39:58;;;;;;;;;;;;;;;-143.57;95.69;50996.84;5056922;28;20440;-65
2022/11/03 04:42:25;;;;;;;;;;;;;;;-143.57;94.69;50963.06;5054864;28;20015;-67
2022/11/03 04:44:51;;;;;;;;;;;;;;;-143.57;95.33;50988.91;5060757;28;19936;-66
2022/11/03 04:47:18;;;;;;;;;;;;;;;-143.57;100.00;50971.03;5056785;28;19951;-67
2022/11/03 04:49:46;;;;;;;;;;;;;;;-143.57;99.32;50982.94;5059624;28;20102;-67
2022/11/03 04:52:15;;;;;;;;;;;;;;;-143.57;99.05;50965.06;5083186;28;20018;-66
2022/11/03 04:54:45;;;;;;;;;;;;;;;-143.57;98.65;50984.94;5062050;28;20887;-67
2022/11/03 04:57:13;;;;;;;;;;;;;;;-143.57;100.00;50961.06;5062020;28;19978;-66
2022/11/03 04:59:41;;;;;;;;;;;;;;;-143.57;100.00;50965.06;5070199;28;19936;-67
2022/11/03 05:02:10;;;;;;;;;;;;;;;-143.57;100.00;50988.91;5061298;28;20026;-66
2022/11/03 05:04:37;;;;;;;;;;;;;;;-143.57;99.09;51008.78;5069984;28;19986;-66
2022/11/03 05:07:33;;;;;;;;;;;;;;;-143.57;98.47;50976.97;5067478;28;20587;-66
2022/11/03 05:10:00;;;;;;;;;;;;;;;-143.57;97.69;50976.97;5043476;28;19924;-66
2022/11/03 05:12:27;;;;;;;;;;;;;;;-143.57;97.39;51008.78;5059574;28;20741;-66
2022/11/03 05:14:54;;;;;;;;;;;;;;;-143.57;98.96;50984.94;5072698;28;19932;-66
2022/11/03 05:17:26;;;;;;;;;;;;;;;-143.57;98.52;50984.94;5066866;28;19929;-66
2022/11/03 05:19:56;;;;;;;;;;;;;;;-143.57;98.64;50980.97;5061041;28;20013;-66
2022/11/03 05:22:25;;;;;;;;;;;;;;;-143.57;97.75;51008.78;5056142;28;19935;-66
2022/11/03 05:24:54;;;;;;;;;;;;;;;-143.57;96.85;50986.91;5061104;28;19929;-66
2022/11/03 05:27:21;;;;;;;;;;;;;;;-143.57;95.94;50969.03;5057846;28;19936;-64
2022/11/03 05:29:49;;;;;;;;;;;;;;;-143.57;96.68;50967.03;5055536;28;19929;-64
2022/11/03 05:32:18;;;;;;;;;;;;;;;-143.57;97.76;50973.00;5060153;28;20381;-66
2022/11/03 05:34:50;;;;;;;;;;;;;;;-143.57;97.32;50988.91;5057548;28;21364;-66
2022/11/03 05:37:20;;;;;;;;;;;;;;;-143.57;96.44;51008.78;5059192;28;19928;-66
2022/11/03 05:39:54;;;;;;;;;;;;;;;-143.57;96.53;50984.94;5058813;28;19936;-66
2022/11/03 05:42:32;;;;;;;;;;;;;;;-143.57;96.51;50965.06;5061121;28;20631;-66
2022/11/03 05:44:59;;;;;;;;;;;;;;;-143.57;97.37;50975.00;5056520;28;20077;-66
2022/11/03 05:47:34;;;;;;;;;;;;;;;-143.57;98.65;50969.03;5061522;28;20023;-66
2022/11/03 05:50:14;;;;;;;;;;;;;;;-143.57;98.51;50980.97;5055598;28;20391;-66
2022/11/03 05:52:42;;;;;;;;;;;;;;;-143.57;97.22;50967.03;5058207;28;19928;-67
2022/11/03 05:55:19;;;;;;;;;;;;;;;-143.57;95.86;50973.00;5057078;28;19998;-66
2022/11/03 05:57:46;;;;;;;;;;;;;;;-143.57;94.63;50957.09;5061038;28;20019;-66
2022/11/03 06:00:25;;;;;;;;;;;;;;;-143.57;93.85;50976.97;5058280;28;21329;-66
2022/11/03 06:02:52;;;;;;;;;;;;;;;-143.57;92.78;50975.00;5063956;28;19986;-66
2022/11/03 06:05:20;;;;;;;;;;;;;;;-143.57;92.30;50969.03;5062276;28;21034;-66
2022/11/03 06:07:52;;;;;;;;;;;;;;;-143.57;91.14;50986.91;5057866;28;19936;-64
2022/11/03 06:10:26;;;;;;;;;;;;;;;-143.57;91.03;50976.97;5058515;28;19928;-64
2022/11/03 06:12:55;;;;;;;;;;;;;;;-143.57;89.59;51008.78;5059877;28;20156;-64
2022/11/03 06:15:32;;;;;;;;;;;;;;;-143.57;87.93;51004.81;5057409;28;21015;-64
2022/11/03 06:18:00;;;;;;;;;;;;;;;-143.57;86.74;51022.69;5056562;28;19932;-64
2022/11/03 06:20:27;;;;;;;;;;;;;;;-143.57;85.48;50976.97;5060274;28;20019;-64
2022/11/03 06:22:54;;;;;;;;;;;;;;;-143.57;84.78;50961.06;5061087;28;19931;-63
2022/11/03 06:25:32;;;;;;;;;;;;;;;-143.57;83.46;50976.97;5060665;28;19932;-64
2022/11/03 06:28:01;;;;;;;;;;;;;;;-143.57;81.76;50980.97;5062484;28;20346;-64
2022/11/03 06:30:29;;;;;;;;;;;;;;;-143.57;80.67;50988.91;5058762;28;19932;-65
2022/11/03 06:33:16;;;;;;;;;;;;;;;-143.57;79.60;51020.72;5058778;28;20069;-65
2022/11/03 06:35:43;;;;;;;;;;;;;;;-143.57;77.91;50969.03;5057317;28;19959;-65
2022/11/03 06:38:21;;;;;;;;;;;;;;;-143.57;76.82;50996.84;5061441;28;19932;-65
2022/11/03 06:40:50;;;;;;;;;;;;;;;-143.57;75.40;50976.97;5062577;28;19932;-65
2022/11/03 06:43:27;;;;;;;;;;;;;;;-143.57;74.72;50980.97;5063119;28;19931;-65
2022/11/03 06:45:57;;;;;;;;;;;;;;;-143.57;75.41;50980.97;5060990;28;20707;-66
2022/11/03 06:48:25;;;;;;;;;;;;;;;-143.57;75.43;50965.06;5058877;28;20409;-66
2022/11/03 06:50:52;;;;;;;;;;;;;;;-143.57;76.14;50961.06;5059271;28;19932;-66
2022/11/03 06:53:22;;;;;;;;;;;;;;;-143.57;75.05;51004.81;5059312;28;19937;-66
2022/11/03 06:55:49;;;;;;;;;;;;;;;-143.57;74.64;50953.13;5060147;28;19928;-64
2022/11/03 06:58:22;;;;;;;;;;;;;;;-143.57;74.08;50969.03;5063940;28;19939;-63
2022/11/03 07:00:49;;;;;;;;;;;;;;;-143.57;73.60;50994.88;5060358;28;19958;-63
2022/11/03 07:03:21;;;;;;;;;;;;;;;-143.57;72.02;51000.84;5064198;28;19939;-64
2022/11/03 07:05:48;;;;;;;;;;;;;;;-143.57;70.37;50992.88;5059049;28;19929;-64
2022/11/03 07:08:22;;;;;;;;;;;;;;;-143.57;70.45;50996.84;5061668;28;19932;-63
2022/11/03 07:11:07;;;;;;;;;;;;;;;-143.57;69.99;50973.00;5060762;28;20186;-64
2022/11/03 07:13:35;;;;;;;;;;;;;;;-143.57;69.46;50990.91;5060896;28;20888;-64
2022/11/03 07:16:02;;;;;;;;;;;;;;;-143.57;67.96;50984.94;5057596;28;19978;-67
2022/11/03 07:18:38;;;;;;;;;;;;;;;-143.57;67.16;50969.03;5062249;28;19928;-66
2022/11/03 07:21:15;;;;;;;;;;;;;;;-143.57;66.82;50988.91;5057243;28;19924;-64
2022/11/03 07:23:41;;;;;;;;;;;;;;;-143.57;64.71;51014.75;5065885;28;20412;-64
2022/11/03 07:26:12;;;;;;;;;;;;;;;-143.57;64.37;50953.13;5058966;28;20512;-64
2022/11/03 07:28:39;;;;;;;;;;;;;;;-143.57;63.77;50996.84;5061508;28;19932;-64
2022/11/03 07:31:13;;;;;;;;;;;;;;;-143.57;63.74;50973.00;5057416;28;19956;-66
2022/11/03 07:33:42;;;;;;;;;;;;;;;-143.57;63.30;50980.97;5059716;28;19935;-65
2022/11/03 07:36:14;;;;;;;;;;;;;;;-143.57;62.97;50965.06;5058705;28;20031;-66
2022/11/03 07:38:43;;;;;;;;;;;;;;;-143.57;62.48;50973.00;5058422;28;20500;-65
2022/11/03 07:41:14;;;;;;;;;;;;;;;-143.57;62.54;51028.66;5058529;28;20497;-65
2022/11/03 07:43:47;;;;;;;;;;;;;;;-143.57;61.40;50984.94;5061025;28;20035;-66
2022/11/03 07:46:18;;;;;;;;;;;;;;;-143.57;61.16;50996.84;5059910;28;19932;-66
2022/11/03 07:48:45;;;;;;;;;;;;;;;-143.57;61.20;50957.09;5060522;28;19925;-66
2022/11/03 07:51:19;;;;;;;;;;;;;;;-143.57;62.27;51008.78;5064139;28;20306;-65
2022/11/03 07:53:47;;;;;;;;;;;;;;;-143.57;61.40;50976.97;5057266;28;19936;-65
2022/11/03 07:56:18;;;;;;;;;;;;;;;-143.57;61.69;51008.78;5060807;28;19935;-66
2022/11/03 07:58:46;;;;;;;;;;;;;;;-143.57;61.40;51008.78;5058917;28;20696;-66
2022/11/03 08:01:21;;;;;;;;;;;;;;;-143.57;61.32;50984.94;5060112;28;19939;-66
2022/11/03 08:03:47;;;;;;;;;;;;;;;-143.57;62.33;50982.94;5058151;28;20050;-66
2022/11/03 08:06:14;;;;;;;;;;;;;;;-143.57;61.87;50996.84;5061025;28;19960;-67
2022/11/03 08:08:45;;;;;;;;;;;;;;;-143.57;62.12;51004.81;5058539;28;19928;-65
2022/11/03 08:11:12;;;;;;;;;;;;;;;-143.57;62.42;50988.91;5060695;28;19994;-65
2022/11/03 08:13:39;;;;;;;;;;;;;;;-143.57;63.03;50961.06;5058456;28;19929;-66
2022/11/03 08:16:06;;;;;;;;;;;;;;;-143.57;62.77;50976.97;5059055;28;19967;-65
2022/11/03 08:18:32;;;;;;;;;;;;;;;-143.57;62.19;50984.94;5060967;28;20015;-66
2022/11/03 08:20:59;;;;;;;;;;;;;;;-143.57;61.13;50961.06;5056186;28;19930;-66
2022/11/03 08:23:26;;;;;;;;;;;;;;;-143.57;60.55;50984.94;5060110;28;20024;-65
2022/11/03 08:25:52;;;;;;;;;;;;;;;-143.57;60.24;51020.72;5063490;28;19931;-65
2022/11/03 08:28:19;;;;;;;;;;;;;;;-143.57;60.68;51022.69;5060836;28;19981;-65
2022/11/03 08:30:45;;;;;;;;;;;;;;;-143.57;60.63;50992.88;5056794;28;20680;-66
2022/11/03 08:33:12;;;;;;;;;;;;;;;-143.57;59.08;50992.88;5061527;28;20591;-65
2022/11/03 08:35:39;;;;;;;;;;;;;;;-143.57;59.43;50973.00;5076484;27;20007;-65
2022/11/03 08:38:05;;;;;;;;;;;;;;;-143.57;58.88;50988.91;5060366;28;20007;-66
2022/11/03 08:40:32;;;;;;;;;;;;;;;-143.57;58.10;50998.84;5058277;28;19924;-65
2022/11/03 08:43:01;;;;;;;;;;;;;;;-143.57;58.01;51012.75;5061419;28;19928;-66
2022/11/03 08:45:30;;;;;;;;;;;;;;;-143.57;56.56;51010.78;5059259;28;21639;-66
2022/11/03 08:47:57;;;;;;;;;;;;;;;-143.57;56.48;51024.69;5059910;28;20395;-66
2022/11/03 08:50:23;;;;;;;;;;;;;;;-143.57;55.73;51012.75;5059796;28;19935;-65
2022/11/03 08:52:50;;;;;;;;;;;;;;;-143.57;55.55;51012.75;5058929;28;19936;-66
2022/11/03 08:55:17;;;;;;;;;;;;;;;-143.57;56.52;50992.88;5060782;28;20559;-66
2022/11/03 08:57:44;;;;;;;;;;;;;;;-143.57;55.58;51008.78;5062257;28;20026;-66
2022/11/03 09:00:11;;;;;;;;;;;;;;;-143.57;53.04;51008.78;5061501;28;19936;-65
2022/11/03 09:02:37;;;;;;;;;;;;;;;-143.57;53.64;51010.78;5058493;28;19983;-65
2022/11/03 09:05:04;;;;;;;;;;;;;;;-143.57;52.40;50980.97;5057882;28;19925;-65
2022/11/03 09:07:31;;;;;;;;;;;;;;;-143.57;51.93;51002.81;5062240;28;20059;-65
2022/11/03 09:10:18;;;;;;;;;;;;;;;-143.57;51.66;50965.06;5060551;28;20031;-65
2022/11/03 09:12:48;;;;;;;;;;;;;;;-143.57;50.94;50996.84;5063142;28;20324;-65
2022/11/03 09:15:15;;;;;;;;;;;;;;;-143.57;51.56;50994.88;5062677;28;19928;-66
2022/11/03 09:17:41;;;;;;;;;;;;;;;-143.57;51.31;50984.94;5064738;28;19935;-66
2022/11/03 09:20:11;;;;;;;;;;;;;;;-143.57;50.70;51012.75;5063159;28;19931;-66
2022/11/03 09:22:38;;;;;;;;;;;;;;;-143.57;51.23;50992.88;5062445;28;20600;-65
2022/11/03 09:25:05;;;;;;;;;;;;;;;-143.57;51.35;51020.72;5064778;28;19999;-66
2022/11/03 09:27:32;;;;;;;;;;;;;;;-143.57;51.22;50969.03;5062984;28;19935;-66
2022/11/03 09:29:59;;;;;;;;;;;;;;;-143.57;50.87;51018.72;5057835;28;19929;-66
2022/11/03 09:32:39;;;;;;;;;;;;;;;-143.57;49.91;50996.84;5058358;28;19935;-65
2022/11/03 09:35:07;;;;;;;;;;;;;;;-143.57;49.55;51016.72;5060555;28;19997;-67
2022/11/03 09:37:33;;;;;;;;;;;;;;;-143.57;49.18;50986.91;5063538;28;19925;-66
2022/11/03 09:40:01;;;;;;;;;;;;;;;-143.57;49.45;50980.97;5060511;28;19998;-68
2022/11/03 09:42:27;;;;;;;;;;;;;;;-143.57;49.05;51014.75;5062527;28;19982;-68
2022/11/03 09:44:54;;;;;;;;;;;;;;;-143.57;48.68;50988.91;5060456;28;20019;-65
2022/11/03 09:47:28;;;;;;;;;;;;;;;-143.57;47.73;50998.84;5065017;28;20013;-66
2022/11/03 09:49:56;;;;;;;;;;;;;;;-143.57;47.36;50980.97;5059639;28;19928;-66
2022/11/03 09:52:23;;;;;;;;;;;;;;;-143.57;46.34;50984.94;5064134;28;19928;-67
2022/11/03 09:54:51;;;;;;;;;;;;;;;-143.57;46.34;51008.78;5061539;28;20043;-67
2022/11/03 09:57:17;;;;;;;;;;;;;;;-143.57;45.28;51000.84;5063724;28;19932;-67
2022/11/03 09:59:45;;;;;;;;;;;;;;;-143.57;45.93;50980.97;5061986;28;20542;-67
2022/11/03 10:02:18;;;;;;;;;;;;;;;-143.57;46.45;50992.88;5063708;28;19968;-66
2022/11/03 10:04:45;;;;;;;;;;;;;;;-143.57;46.77;51028.66;5060371;28;19964;-67
2022/11/03 10:07:11;;;;;;;;;;;;;;;-143.57;46.32;51010.78;5059525;28;21405;-67
2022/11/03 10:09:41;;;;;;;;;;;;;;;-143.57;45.78;51002.81;5065545;28;19997;-68
2022/11/03 10:12:08;;;;;;;;;;;;;;;-143.57;44.89;51024.69;5059869;28;19932;-67
2022/11/03 10:14:35;;;;;;;;;;;;;;;-143.57;44.80;51008.78;5062425;28;19986;-67
2022/11/03 10:17:01;;;;;;;;;;;;;;;-143.57;44.46;51008.78;5060245;28;20023;-67
2022/11/03 10:19:28;;;;;;;;;;;;;;;-143.57;44.46;50990.91;5061725;28;19947;-67
2022/11/03 10:21:55;;;;;;;;;;;;;;;-143.57;44.02;51008.78;5059717;28;19939;-67
2022/11/03 10:24:22;;;;;;;;;;;;;;;-143.57;43.82;51016.72;5060370;28;19982;-67
2022/11/03 10:26:50;;;;;;;;;;;;;;;-143.57;43.64;50976.97;5056147;28;19931;-67
2022/11/03 10:29:18;;;;;;;;;;;;;;;-143.57;43.34;51022.69;5059125;28;19948;-68
2022/11/03 10:31:52;;;;;;;;;;;;;;;-143.57;43.13;50976.97;5061649;28;19927;-69
2022/11/03 10:34:33;;;;;;;;;;;;;;;-143.57;43.39;50976.97;5058651;28;19938;-69
2022/11/03 10:37:05;;;;;;;;;;;;;;;-143.57;42.59;51016.72;5060663;28;19935;-69
2022/11/03 10:39:32;;;;;;;;;;;;;;;-143.57;41.01;50988.91;5060371;28;19935;-68
2022/11/03 10:41:59;;;;;;;;;;;;;;;-143.57;40.36;50976.97;5088675;27;19986;-67
2022/11/03 10:44:27;;;;;;;;;;;;;;;-143.57;40.17;50976.97;5061292;28;19932;-66
2022/11/03 10:46:55;;;;;;;;;;;;;;;-143.57;39.97;50984.94;5060347;28;20328;-66
2022/11/03 10:49:22;;;;;;;;;;;;;;;-143.57;40.13;50998.84;5058987;28;19932;-66
2022/11/03 10:51:51;;;;;;;;;;;;;;;-143.57;39.08;51008.78;5061308;28;21453;-66
2022/11/03 10:54:19;;;;;;;;;;;;;;;-143.57;39.24;51008.78;5059309;28;20613;-66
2022/11/03 10:56:46;;;;;;;;;;;;;;;-143.57;38.20;50978.97;5058412;28;19933;-66
2022/11/03 10:59:17;;;;;;;;;;;;;;;-143.57;37.58;50984.94;5059693;28;19927;-67
2022/11/03 11:01:44;;;;;;;;;;;;;;;-143.57;37.71;50992.88;5066702;28;20435;-66
2022/11/03 11:04:15;;;;;;;;;;;;;;;-143.57;38.09;50994.88;5060303;28;19961;-65
2022/11/03 11:06:42;;;;;;;;;;;;;;;-143.57;37.83;50996.84;5060669;28;19951;-66
2022/11/03 11:09:11;;;;;;;;;;;;;;;-143.57;37.80;51026.69;5058212;28;20055;-67
2022/11/03 11:11:37;;;;;;;;;;;;;;;-143.57;37.63;51016.72;5064143;28;20015;-66
2022/11/03 11:14:19;;;;;;;;;;;;;;;-143.57;37.13;51020.72;5061215;28;20001;-66
2022/11/03 11:16:46;;;;;;;;;;;;;;;-143.57;36.76;50992.88;5059935;28;19986;-66
2022/11/03 11:19:12;;;;;;;;;;;;;;;-143.57;36.36;51012.75;5062005;28;19928;-66
2022/11/03 11:21:39;;;;;;;;;;;;;;;-143.57;36.48;50992.88;5063976;28;20382;-67
2022/11/03 11:24:09;;;;;;;;;;;;;;;-143.57;36.38;50982.94;5061180;28;19936;-66
2022/11/03 11:26:36;;;;;;;;;;;;;;;-143.57;36.51;50984.94;5060872;28;19978;-66
2022/11/03 11:29:09;;;;;;;;;;;;;;;-143.57;36.14;50998.84;5063014;28;19932;-66
2022/11/03 11:31:37;;;;;;;;;;;;;;;-143.57;35.87;50996.84;5057807;28;19959;-66
2022/11/03 11:34:09;;;;;;;;;;;;;;;-143.57;35.08;50998.84;5064140;28;20609;-66
2022/11/03 11:36:41;;;;;;;;;;;;;;;-143.57;35.05;50996.84;5060336;28;20444;-66
2022/11/03 11:39:12;;;;;;;;;;;;;;;-143.57;35.38;50973.00;5061323;28;20675;-66
2022/11/03 11:41:57;;;;;;;;;;;;;;;-143.57;34.93;50984.94;5058686;28;20504;-66
2022/11/03 11:44:42;;;;;;;;;;;;;;;-143.57;35.24;50969.03;5061562;28;19924;-65
2022/11/03 11:47:27;;;;;;;;;;;;;;;-143.57;34.26;50969.03;5057810;28;19932;-66
2022/11/03 11:50:06;;;;;;;;;;;;;;;-143.57;33.94;50986.91;5059269;28;20324;-66
2022/11/03 11:52:35;;;;;;;;;;;;;;;-143.57;34.22;50978.97;5056242;28;19929;-65
2022/11/03 11:55:02;;;;;;;;;;;;;;;-143.57;34.08;50976.97;5059392;28;19928;-65
2022/11/03 11:57:32;;;;;;;;;;;;;;;-143.57;33.46;50971.03;5058247;28;20019;-66
2022/11/03 11:59:59;;;;;;;;;;;;;;;-143.57;32.98;51024.69;5058564;28;19938;-65
2022/11/03 12:02:28;;;;;;;;;;;;;;;-143.57;32.67;50961.06;5059796;28;19955;-65
2022/11/03 12:05:00;;;;;;;;;;;;;;;-143.57;32.28;50957.09;5056663;28;19924;-66
2022/11/03 12:07:33;;;;;;;;;;;;;;;-143.57;31.93;50957.09;5059102;28;20410;-65
2022/11/03 12:10:07;;;;;;;;;;;;;;;-143.57;31.84;50988.91;5057381;28;20645;-65
2022/11/03 12:12:34;;;;;;;;;;;;;;;-143.57;31.45;50988.91;5061251;28;19928;-66
2022/11/03 12:15:00;;;;;;;;;;;;;;;-143.57;31.35;50975.00;5056336;28;20593;-67
2022/11/03 12:17:27;;;;;;;;;;;;;;;-143.57;30.43;50984.94;5064875;28;19969;-67
2022/11/03 12:19:54;;;;;;;;;;;;;;;-143.57;29.72;50984.94;5056870;28;20675;-67
2022/11/03 12:22:24;;;;;;;;;;;;;;;-143.57;29.46;50953.13;5059916;28;20027;-66
2022/11/03 12:24:52;;;;;;;;;;;;;;;-143.57;28.49;50945.19;5056926;28;21420;-65
2022/11/03 12:27:38;;;;;;;;;;;;;;;-143.57;27.69;50945.19;5059563;28;19932;-66
2022/11/03 12:30:10;;;;;;;;;;;;;;;-143.57;26.46;50951.13;5055847;28;19928;-65
2022/11/03 12:32:37;;;;;;;;;;;;;;;-143.57;26.38;50951.13;5059044;28;19951;-66
2022/11/03 12:35:04;;;;;;;;;;;;;;;-143.57;25.57;50941.19;5059290;28;19994;-66
2022/11/03 12:37:31;;;;;;;;;;;;;;;-143.57;25.08;50941.19;5058210;28;19964;-66
2022/11/03 12:39:58;;;;;;;;;;;;;;;-143.57;24.41;50945.19;5057465;28;19928;-66
2022/11/03 12:42:25;;;;;;;;;;;;;;;-143.57;24.25;50953.13;5056943;28;19967;-66
2022/11/03 12:44:52;;;;;;;;;;;;;;;-143.57;24.21;50929.28;5059444;28;19967;-65
2022/11/03 12:47:19;;;;;;;;;;;;;;;-143.57;23.67;50931.25;5056833;28;19931;-66
2022/11/03 12:49:46;;;;;;;;;;;;;;;-143.57;23.07;50945.19;5058906;27;19928;-66
2022/11/03 12:52:12;;;;;;;;;;;;;;;-143.57;22.23;50943.19;5055894;28;19932;-66
2022/11/03 12:54:39;;;;;;;;;;;;;;;-143.57;22.06;50917.34;5059690;28;19990;-66